Search for airport 
image banner adimage banner adimage banner ad
image banner ad

FQQL - Quelimane / National

Located in Quelimane, Mozambique

ICAO - FQQL, IATA - UEL

Data provided by Airmate  

General information

Coordinates: S17°51'5" E36°52'6"
Elevation is 36 feet MSL.
 
View others Airports in Zambezia Province

Operational data

Special qualification required
Current time UTC:
Current local time:
Weather
METAR: FQQL 180600Z 14012KT 9999 SCT020 BKN100 26/22 Q1020
TAF: TAF FQQL 180400Z 1806/1906 17005KT 9999 FEW020 TX28/1813Z TN19/1903Z PROB30 TEMPO 1808/1812 5000 -DZ BKN015 BECMG 1812/1814 12010KT BKN020 BECMG 1818/1820 22005KT
View NOTAMs / SUP AIP / TFR affecting this airport [VIEW]
Communications frequencies: [VIEW]

Runways:

RWY identifierQFULength (ft)Width (ft)SurfaceLDA (ft)
0985°298098GVL
2700
185906148
365906148

Airport contact information

Address: Quelimane Mozambique

Satellite view of FQQL